Share

Day, FL

8:38 AM EDT on April 23, 2014 (GMT -0400)
Madison (KFLMADIS3) Elev 89 ft | 30.37 °N, 83.34 °W | Change Station
Active Advisory: Flood Warning

Current weather conditions updated 6 minutes ago

Scattered Clouds
Scattered Clouds
64.4 °F
Feels Like 64.4 °F
N
2.2
Wind Variable Wind from NNW
Sunrise 6:57 AM
Sunset 8:05 PM
Moon Last Quarter

Today is forecast to be nearly the same temperature as yesterday.

Pressure 29.95 in
Visibility 4.0 miles
Clouds Scattered Clouds 300 ft
Scattered Clouds 6500 ft
Dew Point 61 °F
Humidity 89%
Rainfall 0.00 in
Snow Depth Not available.
UV 1 out of 16
Pollen 8.20 out of 12
Air Quality Not available.
Flu Activity Sporadic
METAR K40J 231235Z AUTO 30004KT 4SM BR SCT003 SCT065 17/17 A2995 RMK AO2

More Conditions Fewer Conditions

Pressure 29.95 in
Visibility 4.0 miles
Clouds Scattered Clouds 300 ft
Scattered Clouds 6500 ft
Dew Point 61 °F
Humidity 89%
Rainfall 0.00 in
Snow Depth Not available.
UV 1 out of 16
Pollen 8.20 out of 12
Air Quality Not available.
Flu Activity Sporadic
METAR K40J 231235Z AUTO 30004KT 4SM BR SCT003 SCT065 17/17 A2995 RMK AO2

More Conditions Fewer Conditions

10-Day Weather Forecast

Almanac

Astronomy

Apr. 23, 2014 Rise Set
Actual Time 6:57 AM EDT 8:05 PM EDT
Civil Twilight 6:32 AM EDT 8:30 PM EDT
Nautical Twilight 6:03 AM EDT 9:00 PM EDT
Astronomical Twilight 5:32 AM EDT 9:31 PM EDT
Moon 3:02 AM EDT 2:37 PM EDT
Length of Visible Light 13h 57m
Length of Day
13h 08m
Tomorrow will be 1m 38s longer.
Last Quarter, 36% of the Moon is Illuminated
Today
Last Quarter
Apr 29
New
May 6
First Quarter
May 14
Full
May 21
Last Quarter

Today's Extremes

State Highs State Lows

Community

  • April Sunset
    April Sunset
  • Waiting..
    Waiting..
  • Sunset...
    Sunset...
  • Happy outdoor day
    Happy outdoor day
  • mystic afternoon....
    mystic afternoon....

WunderPhotos

Upload Photos

1,704,257 photos uploaded!

Nearby

Snow Depth

Station Depth Elevation
No new snow has been reported.

Coastal Water Temperatures

Place Temperature
No Stations Reporting

Earthquake Activity

City Distance Mag. Time & Date
No recent earthquake activity has been reported nearby.
Minimum magnitude displayed is 2.5.

Nearby Weather Stations

Station Location Temp. Dew Point Humidity Wind Precip. Elev Updated Type
Madison, Madison, FL 64.4 °F 61 °F 89% NNW  at  2.2 mph - / hr 89 ft 8:31 AM EDT Normal

Show More Stations Show Fewer Stations

What do you think?

We're not finished. Please let us know what you like, what you don't like, and what you are still missing.